sensor_id;sensor_type;location;lat;lon;timestamp;P1;durP1;ratioP1;P2;durP2;ratioP2
17570;SDS011;8903;52.220;20.978;2023-08-12T00:00:56;13.67;;;5.37;;
17570;SDS011;8903;52.220;20.978;2023-08-12T00:03:23;19.10;;;5.70;;
17570;SDS011;8903;52.220;20.978;2023-08-12T00:05:51;13.00;;;6.03;;
17570;SDS011;8903;52.220;20.978;2023-08-12T00:08:19;12.80;;;4.97;;
17570;SDS011;8903;52.220;20.978;2023-08-12T00:10:46;16.40;;;6.33;;
17570;SDS011;8903;52.220;20.978;2023-08-12T00:13:13;11.07;;;4.97;;
17570;SDS011;8903;52.220;20.978;2023-08-12T00:15:43;12.80;;;6.20;;
17570;SDS011;8903;52.220;20.978;2023-08-12T00:18:11;11.23;;;5.30;;
17570;SDS011;8903;52.220;20.978;2023-08-12T00:20:40;14.60;;;5.87;;
17570;SDS011;8903;52.220;20.978;2023-08-12T00:23:12;8.97;;;5.20;;
17570;SDS011;8903;52.220;20.978;2023-08-12T00:25:39;12.10;;;5.67;;
17570;SDS011;8903;52.220;20.978;2023-08-12T00:28:06;9.10;;;4.67;;
17570;SDS011;8903;52.220;20.978;2023-08-12T00:30:33;21.47;;;6.73;;
17570;SDS011;8903;52.220;20.978;2023-08-12T00:33:00;11.10;;;5.40;;
17570;SDS011;8903;52.220;20.978;2023-08-12T00:35:28;14.00;;;6.00;;
17570;SDS011;8903;52.220;20.978;2023-08-12T00:37:55;13.90;;;6.10;;
17570;SDS011;8903;52.220;20.978;2023-08-12T00:40:22;19.23;;;5.43;;
17570;SDS011;8903;52.220;20.978;2023-08-12T00:42:49;27.30;;;8.27;;
17570;SDS011;8903;52.220;20.978;2023-08-12T00:45:16;15.13;;;7.27;;
17570;SDS011;8903;52.220;20.978;2023-08-12T00:47:43;8.27;;;5.70;;
17570;SDS011;8903;52.220;20.978;2023-08-12T00:50:10;10.30;;;5.40;;
17570;SDS011;8903;52.220;20.978;2023-08-12T00:52:41;11.50;;;5.53;;
17570;SDS011;8903;52.220;20.978;2023-08-12T00:55:09;17.33;;;6.27;;
17570;SDS011;8903;52.220;20.978;2023-08-12T00:57:38;9.37;;;5.60;;
17570;SDS011;8903;52.220;20.978;2023-08-12T01:00:06;12.27;;;6.13;;
17570;SDS011;8903;52.220;20.978;2023-08-12T01:02:37;13.00;;;7.17;;
17570;SDS011;8903;52.220;20.978;2023-08-12T01:05:10;24.00;;;6.93;;
17570;SDS011;8903;52.220;20.978;2023-08-12T01:07:42;16.60;;;6.33;;
17570;SDS011;8903;52.220;20.978;2023-08-12T01:10:11;13.67;;;6.10;;
17570;SDS011;8903;52.220;20.978;2023-08-12T01:12:41;11.20;;;6.00;;
17570;SDS011;8903;52.220;20.978;2023-08-12T01:15:15;13.80;;;6.07;;
17570;SDS011;8903;52.220;20.978;2023-08-12T01:17:48;8.97;;;5.50;;
17570;SDS011;8903;52.220;20.978;2023-08-12T01:20:20;15.03;;;5.67;;
17570;SDS011;8903;52.220;20.978;2023-08-12T01:22:56;14.10;;;5.80;;
17570;SDS011;8903;52.220;20.978;2023-08-12T01:25:26;11.20;;;5.40;;
17570;SDS011;8903;52.220;20.978;2023-08-12T01:27:54;9.17;;;5.40;;
17570;SDS011;8903;52.220;20.978;2023-08-12T01:30:21;11.00;;;6.13;;
17570;SDS011;8903;52.220;20.978;2023-08-12T01:32:50;11.43;;;5.30;;
17570;SDS011;8903;52.220;20.978;2023-08-12T01:35:21;20.23;;;5.70;;
17570;SDS011;8903;52.220;20.978;2023-08-12T01:37:53;13.23;;;5.90;;
17570;SDS011;8903;52.220;20.978;2023-08-12T01:40:23;9.13;;;5.80;;
17570;SDS011;8903;52.220;20.978;2023-08-12T01:42:56;18.60;;;6.00;;
17570;SDS011;8903;52.220;20.978;2023-08-12T01:45:23;17.57;;;5.80;;
17570;SDS011;8903;52.220;20.978;2023-08-12T01:47:50;11.77;;;5.90;;
17570;SDS011;8903;52.220;20.978;2023-08-12T01:50:17;21.30;;;5.53;;
17570;SDS011;8903;52.220;20.978;2023-08-12T01:52:46;11.80;;;5.60;;
17570;SDS011;8903;52.220;20.978;2023-08-12T01:55:13;8.40;;;5.73;;
17570;SDS011;8903;52.220;20.978;2023-08-12T01:57:41;13.10;;;4.70;;
17570;SDS011;8903;52.220;20.978;2023-08-12T02:00:10;18.80;;;6.13;;
17570;SDS011;8903;52.220;20.978;2023-08-12T02:02:43;15.90;;;5.70;;
17570;SDS011;8903;52.220;20.978;2023-08-12T02:05:11;14.83;;;6.27;;
17570;SDS011;8903;52.220;20.978;2023-08-12T02:07:39;15.20;;;5.43;;
17570;SDS011;8903;52.220;20.978;2023-08-12T02:10:08;16.77;;;5.53;;
17570;SDS011;8903;52.220;20.978;2023-08-12T02:12:39;15.53;;;6.70;;
17570;SDS011;8903;52.220;20.978;2023-08-12T02:15:06;12.63;;;6.73;;
17570;SDS011;8903;52.220;20.978;2023-08-12T02:17:35;9.60;;;6.50;;
17570;SDS011;8903;52.220;20.978;2023-08-12T02:20:02;13.83;;;6.43;;
17570;SDS011;8903;52.220;20.978;2023-08-12T02:22:33;15.33;;;6.00;;
17570;SDS011;8903;52.220;20.978;2023-08-12T02:25:00;12.70;;;6.13;;
17570;SDS011;8903;52.220;20.978;2023-08-12T02:27:27;13.67;;;6.67;;
17570;SDS011;8903;52.220;20.978;2023-08-12T02:29:54;10.50;;;5.83;;
17570;SDS011;8903;52.220;20.978;2023-08-12T02:32:21;13.13;;;6.10;;
17570;SDS011;8903;52.220;20.978;2023-08-12T02:34:53;11.63;;;6.07;;
17570;SDS011;8903;52.220;20.978;2023-08-12T02:37:20;12.33;;;5.97;;
17570;SDS011;8903;52.220;20.978;2023-08-12T02:39:47;14.90;;;6.10;;
17570;SDS011;8903;52.220;20.978;2023-08-12T02:42:14;11.30;;;6.47;;
17570;SDS011;8903;52.220;20.978;2023-08-12T02:44:41;11.60;;;6.37;;
17570;SDS011;8903;52.220;20.978;2023-08-12T02:47:08;10.83;;;5.57;;
17570;SDS011;8903;52.220;20.978;2023-08-12T02:49:35;14.00;;;7.00;;
17570;SDS011;8903;52.220;20.978;2023-08-12T02:52:07;10.50;;;6.30;;
17570;SDS011;8903;52.220;20.978;2023-08-12T02:54:35;13.57;;;6.43;;
17570;SDS011;8903;52.220;20.978;2023-08-12T02:57:02;11.60;;;5.80;;
17570;SDS011;8903;52.220;20.978;2023-08-12T02:59:29;10.73;;;5.27;;
17570;SDS011;8903;52.220;20.978;2023-08-12T03:01:56;15.90;;;7.30;;
17570;SDS011;8903;52.220;20.978;2023-08-12T03:04:23;9.83;;;5.50;;
17570;SDS011;8903;52.220;20.978;2023-08-12T03:06:50;24.83;;;6.60;;
17570;SDS011;8903;52.220;20.978;2023-08-12T03:09:18;15.20;;;5.80;;
17570;SDS011;8903;52.220;20.978;2023-08-12T03:11:45;14.40;;;7.03;;
17570;SDS011;8903;52.220;20.978;2023-08-12T03:14:14;8.43;;;6.40;;
17570;SDS011;8903;52.220;20.978;2023-08-12T03:16:41;12.00;;;5.43;;
17570;SDS011;8903;52.220;20.978;2023-08-12T03:19:08;11.40;;;5.77;;
17570;SDS011;8903;52.220;20.978;2023-08-12T03:21:35;13.57;;;6.00;;
17570;SDS011;8903;52.220;20.978;2023-08-12T03:24:03;11.20;;;5.80;;
17570;SDS011;8903;52.220;20.978;2023-08-12T03:26:33;14.40;;;6.00;;
17570;SDS011;8903;52.220;20.978;2023-08-12T03:29:00;8.17;;;5.03;;
17570;SDS011;8903;52.220;20.978;2023-08-12T03:31:34;8.53;;;5.60;;
17570;SDS011;8903;52.220;20.978;2023-08-12T03:34:02;15.80;;;6.40;;
17570;SDS011;8903;52.220;20.978;2023-08-12T03:36:30;8.80;;;5.47;;
17570;SDS011;8903;52.220;20.978;2023-08-12T03:38:58;8.13;;;5.23;;
17570;SDS011;8903;52.220;20.978;2023-08-12T03:41:28;13.10;;;5.10;;
17570;SDS011;8903;52.220;20.978;2023-08-12T03:44:00;9.63;;;5.43;;
17570;SDS011;8903;52.220;20.978;2023-08-12T03:46:27;6.10;;;5.07;;
17570;SDS011;8903;52.220;20.978;2023-08-12T03:48:57;10.00;;;5.10;;
17570;SDS011;8903;52.220;20.978;2023-08-12T03:51:25;7.90;;;5.47;;
17570;SDS011;8903;52.220;20.978;2023-08-12T03:53:52;8.43;;;5.30;;
17570;SDS011;8903;52.220;20.978;2023-08-12T03:56:19;8.70;;;5.13;;
17570;SDS011;8903;52.220;20.978;2023-08-12T03:58:46;7.80;;;5.13;;
17570;SDS011;8903;52.220;20.978;2023-08-12T04:01:18;8.77;;;5.20;;
17570;SDS011;8903;52.220;20.978;2023-08-12T04:03:45;7.03;;;5.40;;
17570;SDS011;8903;52.220;20.978;2023-08-12T04:06:12;13.27;;;6.77;;
17570;SDS011;8903;52.220;20.978;2023-08-12T04:08:39;6.47;;;5.00;;
17570;SDS011;8903;52.220;20.978;2023-08-12T04:11:06;13.07;;;5.07;;
17570;SDS011;8903;52.220;20.978;2023-08-12T04:13:33;13.47;;;5.83;;
17570;SDS011;8903;52.220;20.978;2023-08-12T04:16:03;10.70;;;6.33;;
17570;SDS011;8903;52.220;20.978;2023-08-12T04:18:34;9.20;;;6.10;;
17570;SDS011;8903;52.220;20.978;2023-08-12T04:21:01;11.03;;;7.47;;
17570;SDS011;8903;52.220;20.978;2023-08-12T04:23:29;12.87;;;7.00;;
17570;SDS011;8903;52.220;20.978;2023-08-12T04:25:56;10.50;;;5.70;;
17570;SDS011;8903;52.220;20.978;2023-08-12T04:28:26;15.93;;;6.83;;
17570;SDS011;8903;52.220;20.978;2023-08-12T04:30:53;16.73;;;10.47;;
17570;SDS011;8903;52.220;20.978;2023-08-12T04:33:22;13.67;;;9.43;;
17570;SDS011;8903;52.220;20.978;2023-08-12T04:35:54;15.20;;;9.07;;
17570;SDS011;8903;52.220;20.978;2023-08-12T04:38:22;15.03;;;9.40;;
17570;SDS011;8903;52.220;20.978;2023-08-12T04:40:52;17.60;;;9.93;;
17570;SDS011;8903;52.220;20.978;2023-08-12T04:43:20;19.47;;;10.20;;
17570;SDS011;8903;52.220;20.978;2023-08-12T04:45:47;12.23;;;8.93;;
17570;SDS011;8903;52.220;20.978;2023-08-12T04:48:18;15.93;;;9.23;;
17570;SDS011;8903;52.220;20.978;2023-08-12T04:50:45;17.07;;;8.43;;
17570;SDS011;8903;52.220;20.978;2023-08-12T04:53:13;17.30;;;8.83;;
17570;SDS011;8903;52.220;20.978;2023-08-12T04:55:40;13.60;;;8.93;;
17570;SDS011;8903;52.220;20.978;2023-08-12T04:58:08;15.27;;;8.07;;
17570;SDS011;8903;52.220;20.978;2023-08-12T05:00:36;13.37;;;7.80;;
17570;SDS011;8903;52.220;20.978;2023-08-12T05:03:03;14.57;;;7.17;;
17570;SDS011;8903;52.220;20.978;2023-08-12T05:05:30;8.60;;;5.77;;
17570;SDS011;8903;52.220;20.978;2023-08-12T05:07:57;11.50;;;6.80;;
17570;SDS011;8903;52.220;20.978;2023-08-12T05:10:26;12.63;;;6.07;;
17570;SDS011;8903;52.220;20.978;2023-08-12T05:12:54;7.63;;;5.43;;
17570;SDS011;8903;52.220;20.978;2023-08-12T05:15:25;10.70;;;5.77;;
17570;SDS011;8903;52.220;20.978;2023-08-12T05:17:53;17.03;;;5.33;;
17570;SDS011;8903;52.220;20.978;2023-08-12T05:20:22;7.53;;;6.00;;
17570;SDS011;8903;52.220;20.978;2023-08-12T05:22:49;8.63;;;5.20;;
17570;SDS011;8903;52.220;20.978;2023-08-12T05:25:16;11.77;;;5.10;;
17570;SDS011;8903;52.220;20.978;2023-08-12T05:27:45;6.20;;;4.80;;
17570;SDS011;8903;52.220;20.978;2023-08-12T05:30:12;9.33;;;4.17;;
17570;SDS011;8903;52.220;20.978;2023-08-12T05:32:40;6.30;;;4.20;;
17570;SDS011;8903;52.220;20.978;2023-08-12T05:35:07;4.80;;;3.80;;
17570;SDS011;8903;52.220;20.978;2023-08-12T05:37:35;6.47;;;4.20;;
17570;SDS011;8903;52.220;20.978;2023-08-12T05:40:03;5.47;;;3.47;;
17570;SDS011;8903;52.220;20.978;2023-08-12T05:42:33;5.63;;;3.43;;
17570;SDS011;8903;52.220;20.978;2023-08-12T05:45:02;5.77;;;3.60;;
17570;SDS011;8903;52.220;20.978;2023-08-12T05:47:29;11.40;;;5.00;;
17570;SDS011;8903;52.220;20.978;2023-08-12T05:49:57;8.40;;;4.40;;
17570;SDS011;8903;52.220;20.978;2023-08-12T05:52:25;6.13;;;4.13;;
17570;SDS011;8903;52.220;20.978;2023-08-12T05:54:52;3.60;;;3.30;;
17570;SDS011;8903;52.220;20.978;2023-08-12T05:57:20;5.70;;;4.10;;
17570;SDS011;8903;52.220;20.978;2023-08-12T05:59:47;5.30;;;3.40;;
17570;SDS011;8903;52.220;20.978;2023-08-12T06:02:19;5.90;;;3.70;;
17570;SDS011;8903;52.220;20.978;2023-08-12T06:04:46;12.80;;;4.73;;
17570;SDS011;8903;52.220;20.978;2023-08-12T06:07:13;17.67;;;5.33;;
17570;SDS011;8903;52.220;20.978;2023-08-12T06:09:40;9.10;;;5.23;;
17570;SDS011;8903;52.220;20.978;2023-08-12T06:12:07;10.40;;;4.40;;
17570;SDS011;8903;52.220;20.978;2023-08-12T06:14:36;15.27;;;10.93;;
17570;SDS011;8903;52.220;20.978;2023-08-12T06:17:04;9.20;;;4.67;;
17570;SDS011;8903;52.220;20.978;2023-08-12T06:19:32;7.43;;;4.37;;
17570;SDS011;8903;52.220;20.978;2023-08-12T06:22:00;10.17;;;5.00;;
17570;SDS011;8903;52.220;20.978;2023-08-12T06:24:28;5.20;;;3.40;;
17570;SDS011;8903;52.220;20.978;2023-08-12T06:26:55;4.33;;;3.27;;
17570;SDS011;8903;52.220;20.978;2023-08-12T06:29:22;7.80;;;3.73;;
17570;SDS011;8903;52.220;20.978;2023-08-12T06:31:49;6.53;;;3.27;;
17570;SDS011;8903;52.220;20.978;2023-08-12T06:34:16;10.33;;;3.30;;
17570;SDS011;8903;52.220;20.978;2023-08-12T06:36:46;7.50;;;3.30;;
17570;SDS011;8903;52.220;20.978;2023-08-12T06:39:17;6.80;;;3.10;;
17570;SDS011;8903;52.220;20.978;2023-08-12T06:41:44;6.00;;;3.50;;
17570;SDS011;8903;52.220;20.978;2023-08-12T06:44:11;4.10;;;2.37;;
17570;SDS011;8903;52.220;20.978;2023-08-12T06:46:38;6.13;;;3.10;;
17570;SDS011;8903;52.220;20.978;2023-08-12T06:49:05;6.73;;;2.87;;
17570;SDS011;8903;52.220;20.978;2023-08-12T06:51:33;4.73;;;2.90;;
17570;SDS011;8903;52.220;20.978;2023-08-12T06:54:01;3.47;;;2.97;;
17570;SDS011;8903;52.220;20.978;2023-08-12T06:56:29;10.07;;;2.77;;
17570;SDS011;8903;52.220;20.978;2023-08-12T06:58:56;4.77;;;3.00;;
17570;SDS011;8903;52.220;20.978;2023-08-12T07:01:23;2.53;;;2.30;;
17570;SDS011;8903;52.220;20.978;2023-08-12T07:03:50;4.83;;;1.97;;
17570;SDS011;8903;52.220;20.978;2023-08-12T07:06:17;4.83;;;2.37;;
17570;SDS011;8903;52.220;20.978;2023-08-12T07:08:44;6.83;;;2.63;;
17570;SDS011;8903;52.220;20.978;2023-08-12T07:11:13;5.07;;;2.60;;
17570;SDS011;8903;52.220;20.978;2023-08-12T07:13:39;5.70;;;2.63;;
17570;SDS011;8903;52.220;20.978;2023-08-12T07:16:08;4.47;;;2.53;;
17570;SDS011;8903;52.220;20.978;2023-08-12T07:18:34;2.40;;;2.20;;
17570;SDS011;8903;52.220;20.978;2023-08-12T07:21:01;5.53;;;2.13;;
17570;SDS011;8903;52.220;20.978;2023-08-12T07:23:28;4.27;;;2.40;;
17570;SDS011;8903;52.220;20.978;2023-08-12T07:25:55;6.00;;;2.63;;
17570;SDS011;8903;52.220;20.978;2023-08-12T07:28:24;3.47;;;1.73;;
17570;SDS011;8903;52.220;20.978;2023-08-12T07:30:50;6.73;;;2.63;;
17570;SDS011;8903;52.220;20.978;2023-08-12T07:33:17;5.33;;;2.10;;
17570;SDS011;8903;52.220;20.978;2023-08-12T07:35:45;2.83;;;1.77;;
17570;SDS011;8903;52.220;20.978;2023-08-12T07:38:12;4.37;;;2.30;;
17570;SDS011;8903;52.220;20.978;2023-08-12T07:40:40;2.73;;;2.33;;
17570;SDS011;8903;52.220;20.978;2023-08-12T07:43:07;2.67;;;2.07;;
17570;SDS011;8903;52.220;20.978;2023-08-12T07:45:35;8.73;;;1.97;;
17570;SDS011;8903;52.220;20.978;2023-08-12T07:48:02;3.17;;;1.77;;
17570;SDS011;8903;52.220;20.978;2023-08-12T07:50:29;3.60;;;1.70;;
17570;SDS011;8903;52.220;20.978;2023-08-12T07:52:56;5.53;;;2.47;;
17570;SDS011;8903;52.220;20.978;2023-08-12T07:55:23;10.33;;;2.60;;
17570;SDS011;8903;52.220;20.978;2023-08-12T07:57:50;7.93;;;4.57;;
17570;SDS011;8903;52.220;20.978;2023-08-12T08:00:18;5.27;;;2.87;;
17570;SDS011;8903;52.220;20.978;2023-08-12T08:02:46;5.03;;;1.77;;
17570;SDS011;8903;52.220;20.978;2023-08-12T08:05:13;3.10;;;2.20;;
17570;SDS011;8903;52.220;20.978;2023-08-12T08:07:40;6.30;;;2.60;;
17570;SDS011;8903;52.220;20.978;2023-08-12T08:10:08;2.13;;;1.93;;
17570;SDS011;8903;52.220;20.978;2023-08-12T08:12:35;3.37;;;2.13;;
17570;SDS011;8903;52.220;20.978;2023-08-12T08:15:02;5.30;;;2.03;;
17570;SDS011;8903;52.220;20.978;2023-08-12T08:17:30;6.20;;;2.00;;
17570;SDS011;8903;52.220;20.978;2023-08-12T08:19:59;4.57;;;2.30;;
17570;SDS011;8903;52.220;20.978;2023-08-12T08:22:26;5.50;;;2.33;;
17570;SDS011;8903;52.220;20.978;2023-08-12T08:24:53;2.70;;;2.17;;
17570;SDS011;8903;52.220;20.978;2023-08-12T08:27:20;5.13;;;2.00;;
17570;SDS011;8903;52.220;20.978;2023-08-12T08:29:47;6.13;;;1.80;;
17570;SDS011;8903;52.220;20.978;2023-08-12T08:32:14;2.97;;;1.93;;
17570;SDS011;8903;52.220;20.978;2023-08-12T08:34:41;4.63;;;2.40;;
17570;SDS011;8903;52.220;20.978;2023-08-12T08:37:10;3.97;;;1.80;;
17570;SDS011;8903;52.220;20.978;2023-08-12T08:39:37;6.47;;;2.10;;
17570;SDS011;8903;52.220;20.978;2023-08-12T08:42:04;5.70;;;1.83;;
17570;SDS011;8903;52.220;20.978;2023-08-12T08:44:32;7.13;;;3.70;;
17570;SDS011;8903;52.220;20.978;2023-08-12T08:47:00;3.30;;;1.80;;
17570;SDS011;8903;52.220;20.978;2023-08-12T08:49:28;4.40;;;2.30;;
17570;SDS011;8903;52.220;20.978;2023-08-12T08:51:58;4.30;;;2.07;;
17570;SDS011;8903;52.220;20.978;2023-08-12T08:54:27;2.40;;;1.80;;
17570;SDS011;8903;52.220;20.978;2023-08-12T08:56:54;5.17;;;3.00;;
17570;SDS011;8903;52.220;20.978;2023-08-12T08:59:21;4.50;;;1.60;;
17570;SDS011;8903;52.220;20.978;2023-08-12T09:01:49;4.17;;;1.73;;
17570;SDS011;8903;52.220;20.978;2023-08-12T09:04:17;9.37;;;2.03;;
17570;SDS011;8903;52.220;20.978;2023-08-12T09:06:46;8.37;;;2.70;;
17570;SDS011;8903;52.220;20.978;2023-08-12T09:09:16;3.63;;;1.97;;
17570;SDS011;8903;52.220;20.978;2023-08-12T09:11:48;3.13;;;2.43;;
17570;SDS011;8903;52.220;20.978;2023-08-12T09:14:17;4.40;;;2.20;;
17570;SDS011;8903;52.220;20.978;2023-08-12T09:16:44;2.67;;;2.13;;
17570;SDS011;8903;52.220;20.978;2023-08-12T09:19:11;2.70;;;1.83;;
17570;SDS011;8903;52.220;20.978;2023-08-12T09:21:39;3.70;;;2.30;;
17570;SDS011;8903;52.220;20.978;2023-08-12T09:24:07;2.80;;;1.60;;
17570;SDS011;8903;52.220;20.978;2023-08-12T09:26:34;4.60;;;2.93;;
17570;SDS011;8903;52.220;20.978;2023-08-12T09:29:03;2.17;;;1.97;;
17570;SDS011;8903;52.220;20.978;2023-08-12T09:31:30;3.50;;;1.70;;
17570;SDS011;8903;52.220;20.978;2023-08-12T09:33:58;3.33;;;1.80;;
17570;SDS011;8903;52.220;20.978;2023-08-12T09:36:27;6.93;;;2.30;;
17570;SDS011;8903;52.220;20.978;2023-08-12T09:38:56;5.13;;;2.60;;
17570;SDS011;8903;52.220;20.978;2023-08-12T09:41:23;2.33;;;1.60;;
17570;SDS011;8903;52.220;20.978;2023-08-12T09:43:51;1.90;;;1.70;;
17570;SDS011;8903;52.220;20.978;2023-08-12T09:46:20;3.93;;;2.27;;
17570;SDS011;8903;52.220;20.978;2023-08-12T09:48:49;3.50;;;1.83;;
17570;SDS011;8903;52.220;20.978;2023-08-12T09:51:17;5.43;;;3.53;;
17570;SDS011;8903;52.220;20.978;2023-08-12T09:53:47;4.60;;;2.40;;
17570;SDS011;8903;52.220;20.978;2023-08-12T09:56:14;8.17;;;2.27;;
17570;SDS011;8903;52.220;20.978;2023-08-12T09:58:45;2.60;;;2.40;;
17570;SDS011;8903;52.220;20.978;2023-08-12T10:01:14;5.50;;;2.70;;
17570;SDS011;8903;52.220;20.978;2023-08-12T10:03:45;9.20;;;2.03;;
17570;SDS011;8903;52.220;20.978;2023-08-12T10:06:16;4.60;;;1.60;;
17570;SDS011;8903;52.220;20.978;2023-08-12T10:08:44;6.17;;;2.80;;
17570;SDS011;8903;52.220;20.978;2023-08-12T10:11:13;3.67;;;2.17;;
17570;SDS011;8903;52.220;20.978;2023-08-12T10:13:41;5.17;;;2.00;;
17570;SDS011;8903;52.220;20.978;2023-08-12T10:16:08;5.10;;;2.57;;
17570;SDS011;8903;52.220;20.978;2023-08-12T10:18:36;3.70;;;2.33;;
17570;SDS011;8903;52.220;20.978;2023-08-12T10:21:08;4.50;;;2.47;;
17570;SDS011;8903;52.220;20.978;2023-08-12T10:23:36;3.13;;;1.93;;
17570;SDS011;8903;52.220;20.978;2023-08-12T10:26:05;4.00;;;2.50;;
17570;SDS011;8903;52.220;20.978;2023-08-12T10:28:33;4.37;;;1.93;;
17570;SDS011;8903;52.220;20.978;2023-08-12T10:31:02;1.87;;;1.63;;
17570;SDS011;8903;52.220;20.978;2023-08-12T10:33:30;3.40;;;2.47;;
17570;SDS011;8903;52.220;20.978;2023-08-12T10:36:00;3.30;;;2.40;;
17570;SDS011;8903;52.220;20.978;2023-08-12T10:38:29;5.77;;;2.40;;
17570;SDS011;8903;52.220;20.978;2023-08-12T10:43:54;2.83;;;2.30;;
17570;SDS011;8903;52.220;20.978;2023-08-12T10:46:28;5.67;;;2.90;;
17570;SDS011;8903;52.220;20.978;2023-08-12T10:48:58;6.23;;;2.53;;
17570;SDS011;8903;52.220;20.978;2023-08-12T10:51:41;2.17;;;1.90;;
17570;SDS011;8903;52.220;20.978;2023-08-12T10:54:16;3.13;;;2.30;;
17570;SDS011;8903;52.220;20.978;2023-08-12T10:59:49;4.60;;;3.43;;
17570;SDS011;8903;52.220;20.978;2023-08-12T11:02:18;3.47;;;1.80;;
17570;SDS011;8903;52.220;20.978;2023-08-12T11:04:48;4.43;;;2.40;;
17570;SDS011;8903;52.220;20.978;2023-08-12T11:07:15;3.20;;;2.00;;
17570;SDS011;8903;52.220;20.978;2023-08-12T11:09:46;2.33;;;1.93;;
17570;SDS011;8903;52.220;20.978;2023-08-12T11:12:18;2.00;;;1.73;;
17570;SDS011;8903;52.220;20.978;2023-08-12T11:14:54;2.30;;;1.93;;
17570;SDS011;8903;52.220;20.978;2023-08-12T11:17:28;4.20;;;2.50;;
17570;SDS011;8903;52.220;20.978;2023-08-12T11:19:58;4.30;;;2.17;;
17570;SDS011;8903;52.220;20.978;2023-08-12T11:22:25;2.83;;;2.20;;
17570;SDS011;8903;52.220;20.978;2023-08-12T11:24:54;3.17;;;2.47;;
17570;SDS011;8903;52.220;20.978;2023-08-12T11:27:21;3.47;;;1.80;;
17570;SDS011;8903;52.220;20.978;2023-08-12T11:29:49;3.40;;;1.87;;
17570;SDS011;8903;52.220;20.978;2023-08-12T11:32:16;2.23;;;1.57;;
17570;SDS011;8903;52.220;20.978;2023-08-12T11:34:44;6.43;;;2.50;;
17570;SDS011;8903;52.220;20.978;2023-08-12T11:37:11;3.80;;;1.83;;
17570;SDS011;8903;52.220;20.978;2023-08-12T11:39:39;8.53;;;2.27;;
17570;SDS011;8903;52.220;20.978;2023-08-12T11:42:08;4.57;;;1.67;;
17570;SDS011;8903;52.220;20.978;2023-08-12T11:44:35;6.30;;;2.00;;
17570;SDS011;8903;52.220;20.978;2023-08-12T11:47:01;13.60;;;2.13;;
17570;SDS011;8903;52.220;20.978;2023-08-12T11:49:28;3.13;;;1.83;;
17570;SDS011;8903;52.220;20.978;2023-08-12T11:51:55;3.00;;;1.67;;
17570;SDS011;8903;52.220;20.978;2023-08-12T11:54:23;5.47;;;2.37;;
17570;SDS011;8903;52.220;20.978;2023-08-12T11:56:50;5.70;;;2.40;;
17570;SDS011;8903;52.220;20.978;2023-08-12T11:59:18;4.13;;;2.03;;
17570;SDS011;8903;52.220;20.978;2023-08-12T12:01:48;7.93;;;2.40;;
17570;SDS011;8903;52.220;20.978;2023-08-12T12:04:15;3.63;;;2.10;;
17570;SDS011;8903;52.220;20.978;2023-08-12T12:06:45;6.70;;;2.57;;
17570;SDS011;8903;52.220;20.978;2023-08-12T12:09:12;3.27;;;1.80;;
17570;SDS011;8903;52.220;20.978;2023-08-12T12:11:40;1.87;;;1.47;;
17570;SDS011;8903;52.220;20.978;2023-08-12T12:14:08;2.27;;;1.77;;
17570;SDS011;8903;52.220;20.978;2023-08-12T12:16:38;3.60;;;1.70;;
17570;SDS011;8903;52.220;20.978;2023-08-12T12:19:09;3.33;;;2.17;;
17570;SDS011;8903;52.220;20.978;2023-08-12T12:21:39;2.47;;;1.67;;
17570;SDS011;8903;52.220;20.978;2023-08-12T12:24:07;2.60;;;1.90;;
17570;SDS011;8903;52.220;20.978;2023-08-12T12:26:34;2.20;;;2.00;;
17570;SDS011;8903;52.220;20.978;2023-08-12T12:29:02;4.30;;;1.60;;
17570;SDS011;8903;52.220;20.978;2023-08-12T12:31:31;4.90;;;1.57;;
17570;SDS011;8903;52.220;20.978;2023-08-12T12:34:00;3.20;;;1.90;;
17570;SDS011;8903;52.220;20.978;2023-08-12T12:36:27;2.43;;;1.80;;
17570;SDS011;8903;52.220;20.978;2023-08-12T12:38:54;2.40;;;2.20;;
17570;SDS011;8903;52.220;20.978;2023-08-12T12:41:21;4.37;;;1.90;;
17570;SDS011;8903;52.220;20.978;2023-08-12T12:43:48;15.07;;;2.57;;
17570;SDS011;8903;52.220;20.978;2023-08-12T12:46:15;3.33;;;2.20;;
17570;SDS011;8903;52.220;20.978;2023-08-12T12:48:42;5.50;;;1.57;;
17570;SDS011;8903;52.220;20.978;2023-08-12T12:51:11;4.60;;;2.70;;
17570;SDS011;8903;52.220;20.978;2023-08-12T12:53:40;1.50;;;1.40;;
17570;SDS011;8903;52.220;20.978;2023-08-12T12:56:07;2.27;;;2.00;;
17570;SDS011;8903;52.220;20.978;2023-08-12T12:58:36;5.93;;;1.83;;
17570;SDS011;8903;52.220;20.978;2023-08-12T13:01:05;7.60;;;2.20;;
17570;SDS011;8903;52.220;20.978;2023-08-12T13:03:32;4.57;;;1.90;;
17570;SDS011;8903;52.220;20.978;2023-08-12T13:05:59;9.93;;;2.20;;
17570;SDS011;8903;52.220;20.978;2023-08-12T13:08:29;4.90;;;1.90;;
17570;SDS011;8903;52.220;20.978;2023-08-12T13:10:57;3.07;;;1.77;;
17570;SDS011;8903;52.220;20.978;2023-08-12T13:13:24;3.30;;;1.80;;
17570;SDS011;8903;52.220;20.978;2023-08-12T13:15:51;2.27;;;1.83;;
17570;SDS011;8903;52.220;20.978;2023-08-12T13:18:18;3.10;;;1.67;;
17570;SDS011;8903;52.220;20.978;2023-08-12T13:20:45;4.53;;;2.13;;
17570;SDS011;8903;52.220;20.978;2023-08-12T13:23:12;4.87;;;1.77;;
17570;SDS011;8903;52.220;20.978;2023-08-12T13:25:41;20.57;;;2.00;;
17570;SDS011;8903;52.220;20.978;2023-08-12T13:28:08;3.90;;;2.03;;
17570;SDS011;8903;52.220;20.978;2023-08-12T13:30:35;3.83;;;2.67;;
17570;SDS011;8903;52.220;20.978;2023-08-12T13:33:02;3.33;;;2.37;;
17570;SDS011;8903;52.220;20.978;2023-08-12T13:35:30;7.03;;;2.43;;
17570;SDS011;8903;52.220;20.978;2023-08-12T13:37:57;3.13;;;2.30;;
17570;SDS011;8903;52.220;20.978;2023-08-12T13:40:24;1.90;;;1.50;;
17570;SDS011;8903;52.220;20.978;2023-08-12T13:42:53;11.93;;;3.33;;
17570;SDS011;8903;52.220;20.978;2023-08-12T13:45:20;5.50;;;2.80;;
17570;SDS011;8903;52.220;20.978;2023-08-12T13:47:47;4.97;;;2.03;;
17570;SDS011;8903;52.220;20.978;2023-08-12T13:50:14;4.00;;;2.33;;
17570;SDS011;8903;52.220;20.978;2023-08-12T13:52:41;4.40;;;1.97;;
17570;SDS011;8903;52.220;20.978;2023-08-12T13:55:08;3.23;;;1.67;;
17570;SDS011;8903;52.220;20.978;2023-08-12T13:57:35;5.33;;;2.20;;
17570;SDS011;8903;52.220;20.978;2023-08-12T14:00:04;3.73;;;2.27;;
17570;SDS011;8903;52.220;20.978;2023-08-12T14:02:37;3.50;;;1.87;;
17570;SDS011;8903;52.220;20.978;2023-08-12T14:05:05;2.90;;;2.20;;
17570;SDS011;8903;52.220;20.978;2023-08-12T14:07:32;2.80;;;1.63;;
17570;SDS011;8903;52.220;20.978;2023-08-12T14:09:59;4.20;;;1.77;;
17570;SDS011;8903;52.220;20.978;2023-08-12T14:12:26;4.90;;;2.43;;
17570;SDS011;8903;52.220;20.978;2023-08-12T14:14:53;5.60;;;3.37;;
17570;SDS011;8903;52.220;20.978;2023-08-12T14:17:21;4.00;;;2.83;;
17570;SDS011;8903;52.220;20.978;2023-08-12T14:19:50;5.70;;;1.90;;
17570;SDS011;8903;52.220;20.978;2023-08-12T14:22:18;3.60;;;1.90;;
17570;SDS011;8903;52.220;20.978;2023-08-12T14:24:45;2.60;;;1.87;;
17570;SDS011;8903;52.220;20.978;2023-08-12T14:27:14;3.70;;;2.37;;
17570;SDS011;8903;52.220;20.978;2023-08-12T14:29:42;6.40;;;2.20;;
17570;SDS011;8903;52.220;20.978;2023-08-12T14:32:09;4.93;;;1.63;;
17570;SDS011;8903;52.220;20.978;2023-08-12T14:34:38;3.33;;;1.93;;
17570;SDS011;8903;52.220;20.978;2023-08-12T14:37:05;3.47;;;2.20;;
17570;SDS011;8903;52.220;20.978;2023-08-12T14:39:33;3.47;;;1.80;;
17570;SDS011;8903;52.220;20.978;2023-08-12T14:42:00;6.20;;;2.07;;
17570;SDS011;8903;52.220;20.978;2023-08-12T14:44:28;3.20;;;2.10;;
17570;SDS011;8903;52.220;20.978;2023-08-12T14:46:57;2.00;;;1.77;;
17570;SDS011;8903;52.220;20.978;2023-08-12T14:49:24;2.57;;;2.00;;
17570;SDS011;8903;52.220;20.978;2023-08-12T14:51:54;2.97;;;2.00;;
17570;SDS011;8903;52.220;20.978;2023-08-12T14:54:21;2.60;;;1.90;;